Airfield :
LOGIN :

Register | Disclaimer

   EN    FR    IT 

 










Legend :    VFR   Marginal VFR   IFR   Intensive IFR   Very Intensive IFR
Visi :
Ceiling :
>= 8 km
>= 3000ft
5 to 8 km
1000 to 3000 ft
1500m to 5 km
500 to 1000 ft
800 to 1500m
200 to 500 ft
< 800m
< 200 ft
Symbols :   Thunderstorms  Fog  Heavy snow  Heavy precipitations  Wind > 20 kt
SIGMETs :     Misc.  Thunderstorms  Icing  Turbulence  Mountain Waves  Volcanic Ashes







- Airport Elevation : 247 ft
- IATA code : BLL


EKBI - Billund

CURRENT METAR :
  • 220620Z 00000KT 9999 FEW002 03/03 Q1017

EXPIRED METARs :
  • 220550Z 04001KT 3500 BCFG FEW001 02/02 Q1018
  • 220520Z 02001KT 3000 R09/P1500N R27/1200U BCFG FEW001 01/01 Q1017
  • 220450Z AUTO 03003KT 0300NDV R09/1000U R27/0900U FG VV002 01/01 Q1017
  • 220420Z AUTO 33002KT 0150NDV R09/0500N R27/0550N FG VV002 01/01 Q1018
  • 220350Z AUTO 01003KT 0150NDV R09/0600N R27/0700N FG VV002 02/01 Q1018

TAF TAF EKBI
Valid from the 22 at 06:00 until the 23 at 06:00 UTC


220513Z 2206/2306 VRB03KT 0300 FG VV002
BECMG 2206/2208 CAVOK
BECMG 2211/2214 13012KT
TEMPO 2223/2302 4000 SHRA TSRA BKN040CB
BECMG 2302/2304 25012KT 2000 RA BR BKN004
TEMPO 2304/2306 5000 -RA BKN010
No reported NOTAMs for that airfield.



MET'MAP, your aeronautical weather chart ! - Copyright ORBIFLY December 2007 - Disclaimer

ORBIFLY MET'MAP TEAM :

Programming & Development : Alexandra Zaïnal
Concept & Development : Baudouin d'Aumeries
Co-Development & Prog : Marc-Olivier Méhu
Technical & hardware support : Manuel Goepfert

Contact : metmap@orbifly.com




SOURCES & CREDITS :

   NOAA